Time;durP1;ratioP1;P1;durP2;ratioP2;P2;SDS_P1;SDS_P2;PMS_P1;PMS_P2;Temp;Humidity;BMP_temperature;BMP_pressure;BME280_temperature;BME280_humidity;BME280_pressure;Samples;Min_cycle;Max_cycle;Signal;HPM_P1;HPM_P2
2022/06/22 00:01:22;;;;;;;10.27;7.55;;;;;;;15.57;81.59;101554.28;5022735;28;20514;-62
2022/06/22 00:03:52;;;;;;;16.48;7.90;;;;;;;15.55;81.54;101564.09;5024297;28;20108;-61
2022/06/22 00:06:38;;;;;;;13.32;7.55;;;;;;;15.45;81.58;101557.47;5021513;28;20065;-62
2022/06/22 00:09:04;;;;;;;11.05;7.53;;;;;;;15.41;82.24;101554.06;5023289;28;20032;-62
2022/06/22 00:11:29;;;;;;;13.95;7.50;;;;;;;15.34;82.35;101553.47;5024773;28;20022;-62
2022/06/22 00:13:58;;;;;;;11.02;7.82;;;;;;;15.29;82.39;101561.63;5024026;28;20028;-62
2022/06/22 00:16:33;;;;;;;12.80;9.02;;;;;;;15.26;83.07;101556.44;5023979;28;20053;-62
2022/06/22 00:18:59;;;;;;;12.85;8.57;;;;;;;15.22;83.49;101552.22;5028216;28;20036;-62
2022/06/22 00:21:30;;;;;;;16.75;9.70;;;;;;;15.24;83.63;101554.78;5028852;28;20091;-62
2022/06/22 00:23:58;;;;;;;14.73;8.65;;;;;;;15.23;83.45;101547.78;5026684;28;20431;-62
2022/06/22 00:26:24;;;;;;;13.07;8.82;;;;;;;15.20;83.46;101553.22;5027916;28;20034;-62
2022/06/22 00:28:55;;;;;;;15.18;9.15;;;;;;;15.10;83.74;101550.06;5028614;28;20040;-62
2022/06/22 00:31:49;;;;;;;13.75;9.00;;;;;;;15.08;83.96;101550.13;5027948;28;20091;-62
2022/06/22 00:34:17;;;;;;;14.57;9.68;;;;;;;15.11;84.00;101551.81;5027843;28;20492;-62
2022/06/22 00:36:46;;;;;;;17.92;10.35;;;;;;;15.08;84.47;101550.13;5028832;28;20021;-62
2022/06/22 00:39:21;;;;;;;18.08;9.38;;;;;;;15.07;84.13;101544.88;5027435;28;20041;-62
2022/06/22 00:41:53;;;;;;;21.08;9.90;;;;;;;15.09;83.97;101551.88;5028626;28;20765;-62
2022/06/22 00:44:19;;;;;;;16.77;9.38;;;;;;;15.16;83.58;101542.72;5026135;28;20392;-62
2022/06/22 00:46:51;;;;;;;12.18;8.20;;;;;;;15.13;83.12;101540.19;5028754;28;20021;-62
2022/06/22 00:49:18;;;;;;;15.50;9.20;;;;;;;14.99;83.07;101540.75;5027956;28;20060;-63
2022/06/22 00:51:43;;;;;;;13.45;9.07;;;;;;;14.94;83.33;101539.22;5025670;28;20112;-63
2022/06/22 00:54:16;;;;;;;14.27;8.40;;;;;;;14.90;83.61;101528.72;5034675;28;20117;-63
2022/06/22 00:57:02;;;;;;;13.35;9.60;;;;;;;14.90;83.82;101522.59;5027345;28;20032;-63
2022/06/22 00:59:37;;;;;;;15.75;9.23;;;;;;;14.84;84.10;101522.81;5026057;28;20030;-62
2022/06/22 01:02:17;;;;;;;15.50;10.23;;;;;;;14.86;83.93;101529.78;5025156;28;20530;-63
2022/06/22 01:04:48;;;;;;;19.13;11.00;;;;;;;14.90;84.42;101522.59;5026030;28;20473;-63
2022/06/22 01:07:42;;;;;;;13.48;10.02;;;;;;;14.94;84.67;101529.47;5027512;28;20054;-62
2022/06/22 01:10:15;;;;;;;17.85;11.68;;;;;;;14.93;84.62;101521.59;5027856;28;20495;-61
2022/06/22 01:12:48;;;;;;;17.13;10.68;;;;;;;14.90;84.72;101523.41;5027751;28;20116;-62
2022/06/22 01:15:33;;;;;;;24.50;12.32;;;;;;;14.86;85.35;101524.47;5027566;28;20021;-63
2022/06/22 01:18:16;;;;;;;23.75;11.95;;;;;;;14.89;85.24;101521.72;5026388;28;20112;-62
2022/06/22 01:20:53;;;;;;;17.27;12.18;;;;;;;14.86;85.44;101529.78;5010052;28;20729;-62
2022/06/22 01:23:39;;;;;;;14.43;10.95;;;;;;;14.88;85.22;101538.56;5027417;28;20036;-62
2022/06/22 01:26:16;;;;;;;16.05;10.82;;;;;;;14.85;85.34;101535.16;5025432;28;20555;-62
2022/06/22 01:28:51;;;;;;;15.45;10.00;;;;;;;14.80;85.88;101532.69;5025477;28;20037;-62
2022/06/22 01:31:16;;;;;;;21.08;11.55;;;;;;;14.80;85.51;101524.72;5025862;28;20044;-62
2022/06/22 01:33:50;;;;;;;21.02;12.52;;;;;;;14.80;86.05;101524.72;5027052;28;20034;-62
2022/06/22 01:36:21;;;;;;;19.52;13.25;;;;;;;14.82;85.92;101516.72;5026370;28;20104;-62
2022/06/22 01:38:47;;;;;;;24.50;13.52;;;;;;;14.83;85.93;101521.94;5026853;28;20041;-62
2022/06/22 01:41:32;;;;;;;21.08;12.95;;;;;;;14.83;86.12;101521.06;5026379;28;20018;-62
2022/06/22 01:44:12;;;;;;;16.42;12.90;;;;;;;14.82;85.98;101517.59;5026964;28;20108;-62
2022/06/22 01:46:40;;;;;;;19.45;13.55;;;;;;;14.77;86.52;101522.16;5027844;28;20038;-63
2022/06/22 01:49:31;;;;;;;17.95;12.20;;;;;;;14.75;86.59;101534.66;5026785;28;20111;-62
2022/06/22 01:52:06;;;;;;;19.45;12.90;;;;;;;14.70;86.56;101549.88;5039384;28;20033;-62
2022/06/22 01:54:43;;;;;;;23.13;13.65;;;;;;;14.65;86.71;101552.69;5047305;28;20620;-65
2022/06/22 01:57:19;;;;;;;18.25;12.57;;;;;;;14.66;86.42;101557.09;5045033;28;20036;-64
2022/06/22 01:59:49;;;;;;;21.30;12.32;;;;;;;14.61;86.34;101559.94;5025463;28;20029;-62
2022/06/22 02:02:20;;;;;;;17.48;11.85;;;;;;;14.58;86.71;101565.34;5024438;28;20079;-62
2022/06/22 02:04:45;;;;;;;15.70;12.13;;;;;;;14.55;86.78;101559.28;5025477;28;20021;-62
2022/06/22 02:10:23;;;;;;;30.30;16.70;;;;;;;14.51;87.70;101538.19;5027054;28;20120;-62
2022/06/22 02:12:57;;;;;;;21.33;14.57;;;;;;;14.56;87.36;101545.97;5007284;28;20034;-63
2022/06/22 02:15:29;;;;;;;26.38;14.48;;;;;;;14.58;86.94;101546.78;5006084;28;20084;-62
2022/06/22 02:17:55;;;;;;;22.38;15.07;;;;;;;14.57;86.91;101545.03;5006099;28;20026;-62
2022/06/22 02:20:37;;;;;;;23.77;14.98;;;;;;;14.55;87.05;101541.59;5005792;28;20022;-62
2022/06/22 02:23:08;;;;;;;21.27;12.75;;;;;;;14.50;86.37;101543.56;5005574;28;20030;-62
2022/06/22 02:25:38;;;;;;;22.52;14.60;;;;;;;14.43;86.69;101550.91;5024860;28;20084;-62
2022/06/22 02:28:03;;;;;;;23.15;13.90;;;;;;;14.42;86.92;101543.00;5024326;28;20033;-62
2022/06/22 02:30:29;;;;;;;24.48;16.00;;;;;;;14.36;87.99;101531.72;5026505;28;20028;-62
2022/06/22 02:32:54;;;;;;;20.80;15.50;;;;;;;14.42;87.55;101521.81;5024798;28;20025;-63
2022/06/22 02:35:20;;;;;;;23.73;13.25;;;;;;;14.29;87.25;101524.91;5026271;28;20072;-63
2022/06/22 02:37:49;;;;;;;21.40;12.82;;;;;;;14.20;86.32;101522.63;5033398;28;20029;-64
2022/06/22 02:40:27;;;;;;;15.98;11.52;;;;;;;14.06;86.04;101515.22;5038283;28;20096;-63
2022/06/22 02:45:37;;;;;;;17.15;11.88;;;;;;;13.87;86.19;101510.59;5043266;28;20526;-63
2022/06/22 02:48:11;;;;;;;19.83;12.13;;;;;;;13.79;86.20;101504.72;5039512;28;20425;-62
2022/06/22 02:50:45;;;;;;;20.08;13.60;;;;;;;13.73;86.99;101497.88;5044414;28;20490;-63
2022/06/22 02:53:29;;;;;;;21.75;14.25;;;;;;;13.74;87.17;101489.88;5043243;28;20079;-63
2022/06/22 02:55:54;;;;;;;26.52;16.70;;;;;;;13.80;87.35;101488.78;5044552;28;20017;-63
2022/06/22 02:58:30;;;;;;;25.38;16.40;;;;;;;13.87;88.73;101481.44;5043909;28;20386;-63
2022/06/22 03:00:58;;;;;;;33.97;18.92;;;;;;;13.97;88.37;101476.69;5045428;28;20021;-62
2022/06/22 03:03:24;;;;;;;29.33;18.73;;;;;;;13.98;88.87;101486.34;5043198;28;20025;-62
2022/06/22 03:05:51;;;;;;;32.42;17.85;;;;;;;14.03;88.51;101484.41;5045480;28;20555;-62
2022/06/22 03:08:19;;;;;;;25.50;16.63;;;;;;;14.08;88.73;101481.56;5044206;28;20065;-62
2022/06/22 03:10:54;;;;;;;32.13;19.10;;;;;;;14.08;89.16;101487.72;5045139;28;20021;-63
2022/06/22 03:13:32;;;;;;;34.38;17.67;;;;;;;14.15;88.82;101473.31;5044435;28;20104;-63
2022/06/22 03:15:58;;;;;;;31.42;16.85;;;;;;;14.21;88.10;101463.41;5043836;28;20021;-63
2022/06/22 03:18:28;;;;;;;31.67;17.48;;;;;;;14.22;88.29;101462.47;5044548;28;20028;-62
2022/06/22 03:20:59;;;;;;;24.85;15.70;;;;;;;14.22;88.01;101466.00;5045643;28;20107;-63
2022/06/22 03:23:43;;;;;;;30.55;16.75;;;;;;;14.22;88.05;101470.41;5044662;28;20021;-63
2022/06/22 03:26:27;;;;;;;27.58;15.52;;;;;;;14.18;87.67;101474.97;5044651;28;20047;-63
2022/06/22 03:28:59;;;;;;;28.60;14.95;;;;;;;14.18;87.65;101472.31;5043296;28;20424;-63
2022/06/22 03:31:35;;;;;;;27.05;15.90;;;;;;;14.13;87.61;101479.59;5045296;28;20482;-64
2022/06/22 03:34:07;;;;;;;29.88;16.92;;;;;;;14.11;87.88;101479.66;5044347;28;20029;-62
2022/06/22 03:36:38;;;;;;;21.70;16.38;;;;;;;14.09;87.87;101489.44;5032664;28;20387;-63
2022/06/22 03:39:09;;;;;;;25.30;15.35;;;;;;;14.13;87.62;101499.03;5023791;28;20040;-62
2022/06/22 03:41:41;;;;;;;22.73;14.88;;;;;;;14.12;87.79;101499.09;5023229;28;20104;-62
2022/06/22 03:44:12;;;;;;;27.13;15.63;;;;;;;14.12;87.94;101494.63;5023432;28;20547;-64
2022/06/22 03:46:50;;;;;;;30.63;18.33;;;;;;;14.23;87.73;101493.34;5023391;28;20060;-62
2022/06/22 03:49:29;;;;;;;31.90;16.27;;;;;;;14.24;87.29;101501.25;5023281;28;20033;-63
2022/06/22 03:51:57;;;;;;;22.73;14.82;;;;;;;14.08;86.63;101498.31;5026367;28;20025;-63
2022/06/22 03:54:32;;;;;;;18.83;13.40;;;;;;;13.91;85.71;101498.97;5043179;28;20091;-63
2022/06/22 03:56:59;;;;;;;19.95;13.45;;;;;;;13.83;85.32;101499.25;5043471;28;20032;-63
2022/06/22 03:59:26;;;;;;;19.23;13.45;;;;;;;13.58;85.71;101505.44;5043502;28;20079;-62
2022/06/22 04:01:52;;;;;;;16.42;12.30;;;;;;;13.45;85.85;101504.13;5041973;28;20095;-63
2022/06/22 04:04:18;;;;;;;17.20;12.98;;;;;;;13.38;86.11;101506.13;5043134;28;20029;-62
2022/06/22 04:06:48;;;;;;;18.45;13.60;;;;;;;13.32;86.18;101509.84;5044728;28;20044;-65
2022/06/22 04:09:18;;;;;;;19.98;13.80;;;;;;;13.32;86.11;101504.56;5043919;28;20550;-63
2022/06/22 04:11:58;;;;;;;17.48;12.30;;;;;;;13.32;86.26;101503.69;5038896;28;20028;-62
2022/06/22 04:14:33;;;;;;;20.02;13.35;;;;;;;13.34;86.11;101505.34;5037163;28;20025;-60
2022/06/22 04:17:02;;;;;;;20.67;13.55;;;;;;;13.33;86.33;101500.13;5023469;28;20017;-61
2022/06/22 04:19:36;;;;;;;23.02;13.02;;;;;;;13.44;86.22;101507.69;5023770;28;20108;-61
2022/06/22 04:22:10;;;;;;;19.42;12.75;;;;;;;13.48;86.22;101510.16;5007258;28;20026;-65
2022/06/22 04:24:42;;;;;;;21.20;14.25;;;;;;;13.50;85.94;101512.78;5023300;28;20387;-60
2022/06/22 04:27:18;;;;;;;17.50;12.77;;;;;;;13.53;85.87;101510.03;5023791;28;20472;-60
2022/06/22 04:29:52;;;;;;;19.52;12.48;;;;;;;13.56;86.04;101507.28;5023336;28;20072;-60
2022/06/22 04:32:25;;;;;;;13.82;11.07;;;;;;;13.54;85.97;101513.56;5022476;28;20064;-60
2022/06/22 04:35:00;;;;;;;16.30;12.40;;;;;;;13.54;85.79;101514.41;5022836;28;20112;-64
2022/06/22 04:37:38;;;;;;;19.20;12.95;;;;;;;13.61;85.44;101504.47;5023216;28;20427;-61
2022/06/22 04:40:23;;;;;;;17.83;12.02;;;;;;;13.68;85.76;101499.81;5024579;28;20040;-61
2022/06/22 04:42:55;;;;;;;17.73;11.63;;;;;;;13.77;85.89;101504.78;5022312;28;20036;-60
2022/06/22 04:45:30;;;;;;;17.92;11.90;;;;;;;13.92;85.48;101507.78;5022781;28;20103;-60
2022/06/22 04:48:20;;;;;;;14.82;10.75;;;;;;;14.08;85.73;101508.94;5023672;28;20033;-60
2022/06/22 04:50:47;;;;;;;18.88;11.52;;;;;;;14.23;85.83;101506.59;5024400;28;20025;-59
2022/06/22 04:53:21;;;;;;;15.57;11.05;;;;;;;14.39;85.58;101513.03;5022082;28;20021;-60
2022/06/22 04:55:47;;;;;;;17.17;13.05;;;;;;;14.57;85.59;101509.72;5022975;28;20030;-59
2022/06/22 04:58:31;;;;;;;21.00;14.70;;;;;;;14.75;85.73;101514.28;5024055;28;20036;-61
2022/06/22 05:00:57;;;;;;;21.33;14.05;;;;;;;14.91;86.04;101514.53;5024413;28;20026;-61
2022/06/22 05:03:22;;;;;;;21.50;14.02;;;;;;;15.09;85.70;101513.84;5021998;28;20087;-61
2022/06/22 05:05:48;;;;;;;25.08;14.65;;;;;;;15.26;85.56;101519.28;5027755;28;20029;-59
2022/06/22 05:08:21;;;;;;;45.40;18.40;;;;;;;15.30;86.16;101522.69;5027764;28;20041;-60
2022/06/22 05:10:50;;;;;;;70.40;25.50;;;;;;;15.53;85.16;101526.97;5027693;28;20029;-60
2022/06/22 05:13:20;;;;;;;193.02;42.47;;;;;;;15.61;84.78;101529.31;5031895;28;20037;-60
2022/06/22 05:15:47;;;;;;;75.13;22.17;;;;;;;15.72;84.52;101531.50;5029572;28;20631;-61
2022/06/22 05:18:23;;;;;;;57.13;20.05;;;;;;;15.81;84.30;101543.50;5026089;28;20022;-60
2022/06/22 05:21:06;;;;;;;52.33;16.92;;;;;;;15.94;83.79;101535.81;5025430;28;20076;-60
2022/06/22 05:23:31;;;;;;;29.42;12.18;;;;;;;16.04;83.35;101541.59;5039385;28;20547;-59
2022/06/22 05:26:00;;;;;;;29.23;12.68;;;;;;;16.13;83.18;101538.53;5045890;28;20108;-61
2022/06/22 05:28:33;;;;;;;19.58;12.13;;;;;;;16.20;82.59;101539.13;5033685;28;20376;-60
2022/06/22 05:31:07;;;;;;;22.10;11.63;;;;;;;16.27;82.42;101531.69;5027146;28;20028;-60
2022/06/22 05:33:36;;;;;;;21.85;12.10;;;;;;;16.33;81.76;101541.19;5018274;28;20048;-61
2022/06/22 05:36:04;;;;;;;18.70;11.00;;;;;;;16.42;81.14;101546.94;5016026;28;20028;-66
2022/06/22 05:38:31;;;;;;;19.45;11.02;;;;;;;16.50;80.76;101548.38;5018382;28;20530;-60
2022/06/22 05:40:57;;;;;;;18.13;11.13;;;;;;;16.58;79.99;101562.16;5015761;28;20448;-61
2022/06/22 05:43:23;;;;;;;18.67;11.07;;;;;;;16.71;79.90;101559.78;5021825;28;20025;-60
2022/06/22 05:45:56;;;;;;;14.95;9.43;;;;;;;16.77;79.46;101558.63;5013612;28;20396;-60
2022/06/22 05:48:24;;;;;;;17.88;9.00;;;;;;;16.88;79.30;101561.59;5014517;28;20049;-61
2022/06/22 05:50:56;;;;;;;19.05;10.88;;;;;;;16.92;78.57;101565.84;5020755;28;20018;-59
2022/06/22 05:53:33;;;;;;;15.43;8.60;;;;;;;17.11;77.81;101559.66;5016709;28;20030;-61
2022/06/22 05:56:23;;;;;;;15.48;8.32;;;;;;;17.14;77.13;101559.50;5016529;28;20040;-61
2022/06/22 05:59:07;;;;;;;20.67;8.30;;;;;;;17.27;76.44;101559.72;5018204;28;20060;-60
2022/06/22 06:01:55;;;;;;;15.05;7.90;;;;;;;17.43;75.58;101551.81;5022112;28;20064;-60
2022/06/22 06:04:40;;;;;;;12.50;7.30;;;;;;;17.54;75.41;101558.38;5018454;28;20100;-60
2022/06/22 06:07:24;;;;;;;13.48;6.65;;;;;;;17.64;74.15;101548.09;5014879;28;20041;-60
2022/06/22 06:09:50;;;;;;;13.88;6.45;;;;;;;17.73;73.77;101555.59;5018813;28;20497;-60
2022/06/22 06:12:21;;;;;;;16.98;6.85;;;;;;;17.74;73.18;101551.13;5025087;28;20025;-60
2022/06/22 06:14:52;;;;;;;12.48;6.57;;;;;;;17.66;72.91;101555.06;5025708;28;20037;-60
2022/06/22 06:17:23;;;;;;;11.35;6.65;;;;;;;17.70;72.30;101555.75;5023379;28;20362;-60
2022/06/22 06:19:51;;;;;;;16.05;6.93;;;;;;;17.74;73.37;101556.47;5025987;28;20095;-60
2022/06/22 06:22:17;;;;;;;10.48;6.78;;;;;;;17.74;72.45;101562.66;5025087;28;20060;-61
2022/06/22 06:27:34;;;;;;;;;;;;;;;17.70;72.48;101561.09;5025595;28;20455;-64
2022/06/22 06:30:25;;;;;;;10.65;6.20;;;;;;;17.80;71.48;101559.69;5025629;28;19913;-60
2022/06/22 06:32:59;;;;;;;10.95;5.88;;;;;;;17.96;71.65;101571.31;5017657;28;20648;-60
2022/06/22 06:35:37;;;;;;;12.05;6.10;;;;;;;18.04;71.04;101563.78;5024540;28;20025;-60
2022/06/22 06:38:24;;;;;;;8.98;5.38;;;;;;;18.03;69.86;101573.56;5035816;28;20518;-59
2022/06/22 06:41:15;;;;;;;14.80;5.35;;;;;;;18.09;68.50;101566.19;5044160;28;20029;-64
2022/06/22 06:43:54;;;;;;;10.38;5.13;;;;;;;18.28;69.55;101566.94;5042952;28;20119;-60
2022/06/22 06:46:23;;;;;;;;;;;;;;;18.39;67.19;101560.16;5044592;28;20074;-60
2022/06/22 06:49:00;;;;;;;8.63;4.40;;;;;;;18.36;65.13;101552.31;5035266;28;19917;-63
2022/06/22 06:51:28;;;;;;;8.18;4.38;;;;;;;18.53;63.76;101554.03;5015640;28;20071;-63
2022/06/22 06:54:15;;;;;;;9.07;4.22;;;;;;;18.66;64.29;101539.03;5011053;28;20524;-61
2022/06/22 06:56:46;;;;;;;7.75;4.75;;;;;;;18.74;63.28;101540.41;5018055;28;20018;-59
2022/06/22 06:59:25;;;;;;;10.02;4.57;;;;;;;18.87;63.52;101533.41;5024008;28;20028;-57
2022/06/22 07:01:50;;;;;;;6.47;4.27;;;;;;;18.97;62.33;101528.41;5023918;28;20025;-64
2022/06/22 07:04:24;;;;;;;6.75;3.85;;;;;;;18.96;58.92;101529.31;5024568;28;20083;-62
2022/06/22 07:06:52;;;;;;;8.55;3.55;;;;;;;19.06;59.03;101527.84;5025134;28;20360;-60
2022/06/22 07:09:24;;;;;;;6.65;3.45;;;;;;;19.14;58.34;101523.91;5024890;28;20071;-60
2022/06/22 07:11:52;;;;;;;5.40;3.40;;;;;;;19.21;59.06;101527.06;5032736;28;20021;-61
2022/06/22 07:14:58;;;;;;;11.05;4.00;;;;;;;19.12;59.39;101518.66;5020564;28;20031;-60
2022/06/22 07:17:24;;;;;;;8.75;4.05;;;;;;;19.30;59.24;101521.16;4930434;29;20031;-60
2022/06/22 07:19:58;;;;;;;10.80;4.10;;;;;;;19.24;59.34;101526.88;4915608;29;20020;-60
2022/06/22 07:22:36;;;;;;;9.68;4.20;;;;;;;19.40;58.85;101525.00;4971792;28;20473;-61
2022/06/22 07:25:09;;;;;;;9.73;4.32;;;;;;;19.43;59.76;101523.94;5009422;28;20037;-61
2022/06/22 07:27:38;;;;;;;6.85;4.20;;;;;;;19.52;57.92;101527.88;5011210;28;20029;-59
2022/06/22 07:30:15;;;;;;;12.85;3.70;;;;;;;19.73;59.22;101525.69;5014999;28;20117;-61
2022/06/22 07:32:44;;;;;;;8.13;3.35;;;;;;;19.95;58.97;101537.69;5014973;28;20531;-60
2022/06/22 07:35:11;;;;;;;;;;;;;;;19.89;58.54;101538.94;5016999;28;20492;-59
2022/06/22 07:37:42;;;;;;;7.85;4.22;;;;;;;20.01;58.47;101531.13;5013411;28;19913;-62
2022/06/22 07:40:14;;;;;;;7.80;3.72;;;;;;;20.25;57.88;101527.84;5015385;28;20545;-61
2022/06/22 07:42:39;;;;;;;8.40;5.15;;;;;;;20.13;58.11;101517.00;5018323;28;20112;-60
2022/06/22 07:45:06;;;;;;;9.10;5.03;;;;;;;20.16;57.74;101522.16;5022464;28;20171;-60
2022/06/22 07:47:38;;;;;;;12.10;6.50;;;;;;;20.06;56.84;101516.53;5018170;28;20073;-62
2022/06/22 07:50:12;;;;;;;12.02;5.95;;;;;;;20.11;57.46;101518.06;5021318;28;20330;-61
2022/06/22 07:52:47;;;;;;;11.48;6.72;;;;;;;20.05;57.30;101522.81;5018037;28;20120;-62
2022/06/22 07:55:32;;;;;;;14.80;6.10;;;;;;;20.15;56.36;101515.09;5018203;28;20040;-61
2022/06/22 07:58:19;;;;;;;10.60;6.40;;;;;;;20.02;55.94;101516.81;5022676;28;20091;-61
2022/06/22 08:00:48;;;;;;;10.57;5.80;;;;;;;20.33;55.39;101507.69;5022570;28;20484;-61
2022/06/22 08:03:28;;;;;;;11.57;5.30;;;;;;;20.49;55.02;101514.69;5020775;28;20063;-61
2022/06/22 08:05:56;;;;;;;8.68;5.68;;;;;;;20.42;54.95;101513.38;5021975;28;20033;-61
2022/06/22 08:08:26;;;;;;;9.18;4.78;;;;;;;20.72;54.12;101509.66;5022835;28;20380;-60
2022/06/22 08:11:07;;;;;;;11.00;5.20;;;;;;;20.37;53.46;101519.03;5017755;28;20099;-61
2022/06/22 08:14:01;;;;;;;7.93;3.85;;;;;;;20.67;51.82;101512.63;5022586;28;20030;-61
2022/06/22 08:16:31;;;;;;;6.72;3.38;;;;;;;20.56;50.01;101516.00;4977653;28;20471;-61
2022/06/22 08:18:56;;;;;;;6.80;3.50;;;;;;;20.78;48.74;101519.97;5022545;28;20017;-61
2022/06/22 08:21:22;;;;;;;4.88;2.40;;;;;;;21.03;47.62;101518.31;5019184;28;20595;-60
2022/06/22 08:23:48;;;;;;;5.15;2.45;;;;;;;21.06;46.85;101518.13;5014528;28;20051;-61
2022/06/22 08:26:26;;;;;;;10.07;2.78;;;;;;;21.10;45.64;101521.44;5018336;28;20025;-61
2022/06/22 08:28:52;;;;;;;7.82;2.88;;;;;;;21.36;46.55;101518.78;5016589;28;20022;-63
2022/06/22 08:31:17;;;;;;;7.05;2.10;;;;;;;21.28;45.30;101516.63;5017368;28;20037;-62
2022/06/22 08:33:47;;;;;;;4.55;2.15;;;;;;;21.36;46.00;101515.25;5020050;28;20021;-62
2022/06/22 08:36:31;;;;;;;10.10;3.40;;;;;;;21.23;47.71;101517.94;5022960;28;20025;-62
2022/06/22 08:39:02;;;;;;;9.02;2.40;;;;;;;21.54;45.67;101526.50;5027074;28;20033;-61
2022/06/22 08:42:03;;;;;;;3.75;2.45;;;;;;;21.46;44.20;101521.69;5026256;28;20049;-62
2022/06/22 08:44:43;;;;;;;4.78;2.42;;;;;;;21.67;43.61;101526.53;4991559;28;20083;-62
2022/06/22 08:47:25;;;;;;;5.72;2.60;;;;;;;21.54;43.75;101530.06;5026344;28;20017;-62
2022/06/22 08:50:12;;;;;;;8.07;3.20;;;;;;;21.16;43.71;101526.38;5027367;28;20383;-62
2022/06/22 08:52:43;;;;;;;5.30;2.65;;;;;;;21.10;44.39;101529.47;5027778;28;20057;-63
2022/06/22 08:55:22;;;;;;;7.40;2.90;;;;;;;21.17;44.46;101525.44;5026879;28;20032;-65
2022/06/22 08:57:51;;;;;;;;;;;;;;;21.31;43.58;101523.63;5025026;28;20031;-66
2022/06/22 09:00:31;;;;;;;7.28;2.88;;;;;;;21.11;42.08;101531.22;5026225;28;19999;-65
2022/06/22 09:03:25;;;;;;;3.28;2.17;;;;;;;21.40;42.56;101532.84;5006279;28;20514;-65
2022/06/22 09:06:20;;;;;;;6.93;2.47;;;;;;;21.48;43.39;101533.16;5005769;28;20140;-69
2022/06/22 09:09:01;;;;;;;5.57;2.28;;;;;;;21.36;44.32;101534.00;5007417;28;20496;-65
2022/06/22 09:11:30;;;;;;;3.15;2.00;;;;;;;21.42;42.98;101530.91;5006636;28;20125;-65
2022/06/22 09:14:08;;;;;;;4.95;2.30;;;;;;;21.36;43.67;101526.84;5007663;28;20097;-66
2022/06/22 09:17:06;;;;;;;6.68;2.45;;;;;;;21.48;43.32;101529.63;5016588;28;20041;-66
2022/06/22 09:19:50;;;;;;;8.60;3.05;;;;;;;21.34;43.19;101526.06;5027169;28;20044;-67
2022/06/22 09:22:17;;;;;;;7.45;2.80;;;;;;;21.79;43.53;101524.84;5042040;28;20040;-65
2022/06/22 09:24:51;;;;;;;6.68;2.90;;;;;;;21.45;43.67;101528.88;5046679;28;20021;-65
2022/06/22 09:27:16;;;;;;;6.85;2.95;;;;;;;21.77;43.50;101529.44;5045433;28;20036;-65
2022/06/22 09:30:22;;;;;;;5.30;3.30;;;;;;;21.97;43.17;101528.00;5046945;28;20017;-65
2022/06/22 09:33:19;;;;;;;5.65;2.90;;;;;;;21.75;44.60;101524.19;5017904;28;20033;-65
2022/06/22 09:36:02;;;;;;;4.88;3.03;;;;;;;21.76;43.93;101520.53;5044889;28;20036;-66
2022/06/22 09:38:55;;;;;;;6.80;3.17;;;;;;;21.84;43.59;101522.66;5047139;28;20029;-65
2022/06/22 09:41:44;;;;;;;5.95;2.85;;;;;;;22.06;44.42;101526.47;5045666;28;20422;-65
2022/06/22 09:44:28;;;;;;;5.55;2.95;;;;;;;22.14;43.91;101518.75;5045058;28;20033;-66
2022/06/22 09:47:33;;;;;;;4.50;3.00;;;;;;;22.29;43.66;101522.13;5045819;28;20037;-66
2022/06/22 09:50:11;;;;;;;7.00;4.20;;;;;;;22.27;43.53;101517.88;5044790;28;20029;-66
2022/06/22 09:52:50;;;;;;;9.07;3.28;;;;;;;22.37;44.75;101520.72;5026017;28;20478;-66
2022/06/22 09:58:43;;;;;;;6.57;2.25;;;;;;;22.87;43.75;101517.91;5026287;28;20040;-66
2022/06/22 10:01:30;;;;;;;9.93;3.55;;;;;;;22.86;42.76;101518.91;5024500;28;20021;-66
2022/06/22 10:04:04;;;;;;;7.38;3.28;;;;;;;23.02;42.17;101515.91;5026107;28;20064;-67
2022/06/22 10:06:47;;;;;;;7.95;3.08;;;;;;;22.95;43.21;101515.53;5036695;28;20049;-66
2022/06/22 10:09:25;;;;;;;6.30;3.70;;;;;;;22.63;44.00;101524.16;5028054;28;20029;-66
2022/06/22 10:12:06;;;;;;;7.18;3.22;;;;;;;22.78;43.13;101519.47;5044582;28;20067;-66
2022/06/22 10:14:56;;;;;;;3.45;2.88;;;;;;;23.03;40.93;101519.44;5044613;28;20072;-67
2022/06/22 10:17:39;;;;;;;6.00;2.65;;;;;;;23.33;40.63;101523.44;5045189;28;20064;-66
2022/06/22 10:20:41;;;;;;;5.82;3.15;;;;;;;23.11;41.26;101527.75;5045804;28;20033;-65
2022/06/22 10:23:38;;;;;;;4.15;2.80;;;;;;;23.01;42.17;101516.00;5005002;28;20045;-65
2022/06/22 10:26:23;;;;;;;5.68;2.92;;;;;;;23.18;43.63;101522.78;5003423;28;20117;-66
2022/06/22 10:29:00;;;;;;;5.45;3.22;;;;;;;23.54;42.42;101517.38;5004189;28;20029;-66
2022/06/22 10:31:56;;;;;;;4.65;2.33;;;;;;;23.65;40.34;101520.06;5005418;28;20034;-65
2022/06/22 10:34:34;;;;;;;6.95;2.50;;;;;;;23.33;41.52;101510.81;5005888;28;20045;-65
2022/06/22 10:37:00;;;;;;;5.22;2.30;;;;;;;23.56;41.22;101515.41;5021067;28;20033;-66
2022/06/22 10:39:38;;;;;;;6.20;2.75;;;;;;;23.31;39.72;101511.94;5025417;28;20473;-66
2022/06/22 10:45:20;;;;;;;6.80;2.88;;;;;;;23.73;43.81;101501.50;5025712;28;20092;-66
2022/06/22 10:48:14;;;;;;;6.90;2.55;;;;;;;23.97;42.46;101505.88;5022772;28;20056;-66
2022/06/22 10:50:47;;;;;;;4.32;2.45;;;;;;;24.19;42.33;101506.84;5025544;28;20029;-66
2022/06/22 10:53:49;;;;;;;4.40;2.40;;;;;;;24.46;41.09;101502.84;5024179;28;20005;-66
2022/06/22 10:56:26;;;;;;;5.13;2.42;;;;;;;24.10;42.07;101500.34;5025630;28;20025;-66
2022/06/22 10:59:17;;;;;;;5.47;2.25;;;;;;;24.26;41.35;101500.97;5040621;28;20309;-67
2022/06/22 11:01:52;;;;;;;6.57;1.95;;;;;;;24.17;41.07;101500.72;5019270;28;20037;-65
2022/06/22 11:04:42;;;;;;;2.97;2.03;;;;;;;24.44;37.33;101502.13;5043538;28;20104;-66
2022/06/22 11:07:40;;;;;;;3.67;1.52;;;;;;;24.78;39.76;101500.28;5044720;28;20448;-67
2022/06/22 11:10:08;;;;;;;3.00;1.60;;;;;;;24.84;39.50;101497.91;5044974;28;20387;-66
2022/06/22 11:12:39;;;;;;;5.47;1.90;;;;;;;24.70;38.14;101493.69;5044386;28;20075;-66
2022/06/22 11:15:43;;;;;;;2.17;1.80;;;;;;;24.83;36.21;101496.19;5044503;28;20346;-66
2022/06/22 11:18:20;;;;;;;2.58;1.45;;;;;;;24.91;35.37;101492.88;5039704;28;20103;-65
2022/06/22 11:21:31;;;;;;;3.45;1.92;;;;;;;25.07;34.94;101500.50;5044455;28;20013;-66
2022/06/22 11:24:34;;;;;;;3.60;1.38;;;;;;;25.54;35.71;101492.94;5043821;28;20447;-66
2022/06/22 11:30:51;;;;;;;2.00;1.10;;;;;;;25.43;32.36;101488.53;5044338;28;21154;-65
2022/06/22 11:33:41;;;;;;;4.40;1.30;;;;;;;25.03;33.03;101482.91;5041497;28;20475;-65
2022/06/22 11:36:35;;;;;;;2.45;1.25;;;;;;;24.89;34.24;101481.38;5043511;28;20025;-67
2022/06/22 11:39:31;;;;;;;2.47;1.20;;;;;;;25.28;34.67;101483.47;5044583;28;20029;-67
2022/06/22 11:41:59;;;;;;;2.33;1.05;;;;;;;25.39;31.17;101478.97;5044653;28;20025;-66
2022/06/22 11:44:30;;;;;;;2.65;1.17;;;;;;;25.17;30.05;101476.31;5044485;28;20021;-66
2022/06/22 11:46:57;;;;;;;2.45;1.20;;;;;;;24.89;31.31;101489.47;5042685;28;20541;-66
2022/06/22 11:49:25;;;;;;;1.48;0.80;;;;;;;24.92;31.12;101477.59;5042897;28;20020;-65
2022/06/22 11:52:27;;;;;;;1.70;0.73;;;;;;;25.16;28.88;101476.44;5036490;28;20055;-67
2022/06/22 11:55:19;;;;;;;2.35;0.60;;;;;;;25.16;29.03;101476.44;5043953;28;20036;-66
2022/06/22 11:57:53;;;;;;;2.28;0.50;;;;;;;25.34;29.85;101479.38;5041682;28;20417;-67
2022/06/22 12:00:27;;;;;;;2.25;0.63;;;;;;;25.60;29.70;101478.97;5043038;28;20025;-66
2022/06/22 12:03:11;;;;;;;2.83;0.85;;;;;;;25.66;27.29;101473.03;5044138;28;20188;-66
2022/06/22 12:06:02;;;;;;;1.35;0.77;;;;;;;25.48;28.40;101470.94;5038637;28;20125;-66
2022/06/22 12:08:55;;;;;;;1.25;0.70;;;;;;;25.65;29.27;101467.75;5023498;28;20045;-65
2022/06/22 12:11:32;;;;;;;1.27;0.60;;;;;;;26.39;29.58;101462.94;5023192;28;20106;-66
2022/06/22 12:17:51;;;;;;;0.65;0.50;;;;;;;26.97;27.68;101444.97;5007768;28;20129;-66
2022/06/22 12:20:25;;;;;;;0.98;0.70;;;;;;;27.31;27.45;101450.88;5009683;28;20365;-66